Bestell-/Lieferübersicht (nur Info !)

  • Da Hausmeister Krause sich aus der Liste verabschiedet hat muß jetzt unbedingt der Würfel für chrisny kommen.

    Hier die aktuelle Liste

    # User bestellt am angekündigt geliefert Farbe Ausstattung Schaltung Land Vorlauf
    1 piranha 16.08.2018 2018.10 2018.10 Jungle Green Comfort+ Manuell D nein
    2 Trailmaster 21.09.2018 2019.03_04 2019.03 Black Pearl Comfort+ Manuell D nein
    3 ösi_1964 21.09.2018 2019.04 2019.05 Jungle Green Pure Manuell A nein
    4 chrisny 28.09.2018 2019.05_06 Jungle Green Comfort Automatik D nein
    5 Jimnyjim 29.09.2018 2019.07_08 Black Pearl Comfort+ Manuell D nein
    6 Parilux 01.10.2018 2019.04 2019.03 Black Pearl Comfort+ Manuell D ja
    7 Küstenjimny 01.10.2018 2019.04 2019.04 Jungle Green Comfort+ Manuell D nein
    8 svantevit 01.10.2018 2019.04 2019.04 Jungle Green Comfort+ Manuell D nein
    9 gmeurb 02.10.2018 2019.03_04 2019.05 Black Pearl Comfort+ Manuell D n.n.
    10 R.Kierst 04.10.2018 2019.02 2019.01 Medium Grey Comfort+ Manuell D ja
    11 Uschis Unimog 04.10.2018 2019.05 2019.05 Jungle Green Comfort+ Manuell D nein
    12 hmoedden 04.10.2018 2019.01_02 2019.03 Black Pearl Comfort+ Manuell D ja
    13 Rainer 05.10.2018 2019.04_05 2019.04 Jungle Green Comfort+ Automatik A nein
    14 Specky 05.10.2018 2019.04_05 2019.05 Black Pearl Comfort+ Manuell D nein
    15 JP292 05.10.2018 2019.04 2019.05 Black Pearl Comfort+ Manuell D n.n.
    16 Lobinho 06.10.2018 2019.04 Medium Grey Comfort Automatik D nein
    17 Malouk 08.10.2018 2018.12 2018.12 Medium Grey Comfort+ Manuell D ja
    18 WaldJimny 08.10.2018 2019.05 Jungle Green Comfort+ Manuell D nein
    19 Ente 09.10.2018 2019.02 2019.03 Black Pearl Comfort+ Manuell D ja
    20 1887-er 10.10.2018 2019.02 Jungle Green Comfort+ Manuell D n.n.
    21 Redcloud 10.10.2018 2019.05 2019.05 Kinetic Yellow Comfort+ Manuell D nein
    22 DerRhoener 11.10.2018 2019.05_06 black Pearl Comfort+ Manuell D nein
    23 mwm 12.10.2018 2019.05 2019.05 Jungle Green Comfort Automatik D nein
    24 Jimny Lux 13.10.2018 2019.04 2019.04 Brisk Blue Met. Comfort+ Manuell L nein
    25 mch_br 13.10.2018 2019.04_05 Kinetic Yellow Flash Manuell A n.n.
    26 Desantissybille 15.10.2018 2019.03 2019.03 Kinetic Yellow Comfort+ Manuell D n.n.
    27 Supermario 19.10.2018 2019.04_05 2019.04 Medium Grey Comfort+ Manuell A nein
    28 Supersonic 19.10.2018 2019.Q2 2019.05 Black Pearl Comfort+ Manuell D nein
    29 Vialaguna 19.10.2018 2019.04 2019.04 Medium Grey Comfort Automatik D nein
    30 helle.1.11 20.10.2018 2019.05_06 Jungle Green Comfort+ Manuell D nein
    31 wildhueter-63 22.10.2018 2019.03 Medium Grey Comfort+ Manuell D ja
    32 Katjesfresser 22.10.2018 2019.04 2019.05 Black Pearl Comfort Automatik D nein
    33 dl6hbl 23.10.2018 2019.02 2019.02 Medium Grey Comfort+ Manuell D ja
    34 OnkelJim 23.10.2018 2019.03 2019.03 Medium Grey Comfort+ Manuell D ja
    35 Geofender110 23.10.2018 2019.03 Superior White Comfort+ Manuell D ja
    36 alteir 24.10.2018 2019.05_06 Black Pearl Comfort+ Manuell D nein
    37 Fendt104 24.10.2018 2019.06 Medium Grey Comfort+ Manuell D nein
    38 Coffee 24.10.2018 2019.05_06 2019.06 Jungle Green Comfort+ Manuell D nein
    39 Manfr3d 24.10.2018 2019.03 2019.04 Black Pearl Comfort+ Manuell D nein
    40 TG28 25.10.2018 2018.12_2019.01 2019.01 Chiffon Ivory Comfort+ Manuell D ja
    41 Healow 25.10.2018 2019.02_03 Medium Grey Comfort+ Manuell D nein
    42 nordlicht2000 25.10.2018 2019.06_07 Chiffon Ivory Comfort+ Manuell D n.n.
    43 oloischir 25.10.2018 2019.03 2019.03 Chiffon Ivory Comfort+ Manuell D ja
    44 Doc Osiris 25.10.2018 2019.07 Jungle Green Flash Manuell A n.n.
    45 Sprotte 26.10.2018 2019.03_04 2019.05 Jungle Green Comfort Manuell D nein
    46 Richy 26.10.2018 2019.05 2019.04 Jungle Green Comfort Manuell D ja
    47 MacJimny 26.10.2018 2019.11 Chiffon Ivory Comfort+ Manuell D nein
    48 Woermawo 26.10.2018 2019.01 2019.01 Jungle Green Comfort+ Manuell D nein
    49 Schorle 26.10.2018 2019.06_07 Black Pearl Comfort+ Manuell D nein
    50 henken 26.10.2018 2019.06_07 Black Pearl Comfort+ Manuell D nein
    51 MacDice 27.10.2018 2019.04_05 2019.05 Black Pearl Comfort Manuell D nein
    52 miro 27.10.2018 2019 Brisk Blue Met. Comfort+ Manuell D nein
    53 Odins Wald 27.10.2018 n.n. Jungle Green Comfort+ Manuell D nein
    54 debo71 29.10.2018 n.n. Medium Grey Comfort+ Manuell D nein
    55 tommysbeagle 30.10.2018 2019.04_05 Chiffon Ivory Comfort+ Manuell D nein
    56 biker boyz 31.10.2018 2019.07 Kinetic Yellow Flash Automatik A n.n.
    57 NOBLE_TEAM 31.10.2018 2019.04 Black Pearl Comfort+ Manuell D ja
    58 Werner1340 31.10.2018 n.n. Silky Silver Clear Manuell A nein
    59 Jimy 01.11.2018 2019.06_07 Chiffon Ivory Comfort+ Manuell D n.n.
    60 Natsuki 01.11.2018 2020.01_02 2019.05 Superior White Comfort Manuell D n.n.
    61 utah72 02.11.2018 2019.05 2019.03 Kinetic Yellow Comfort+ Manuell D ja
    62 Der ungeduldige 02.11.2019 2019.05 Kinetic Yellow Comfort+ Manuell D nein
    63 Luxostars 03.11.2018 2019.06 Jungle Green Comfort+ Manuell D n.n.
    64 Micha69er 03.11.2018 2019.08 Jungle Green Comfort Manuell D n.n.
    65 Kobold 03.11.2018 2019.Q1 2019.01 Jungle Green Comfort+ Manuell D n.n.
    66 Jimny_hannes 04.11.2018 2019.06_07 2019.06 Jungle Green Comfort Automatik D nein
    67 christine 05.11.2018 2019.02_03 2019.03 Kinetic Yellow Comfort+ Manuell D nein
  • # User bestellt am angekündigt geliefert Farbe Ausstattung Schaltung Land Vorlauf
    68 agentsky 05.11.2018 2019.06_07 Kinetic Yellow Flash Manuell A nein
    69 steff17 05.11.2018 2019.07_08 Medium Grey Comfort+ Manuell D nein
    70 Jiiirgen 06.11.2018 2019.06 Black Pearl Comfort+ Manuell D nein
    71 rust0015 06.11.2018 2019.08_09 Jungle Green Comfort+ Manuell D nein
    72 Aequilibrium 06.11.2018 2019.02_03 2019.03 Kinetic Yellow Comfort+ Manuell D nein
    73 olenz 06.11.2018 2019.04 Medium Grey Comfort+ Manuell D ja
    74 SaschaBa 08.11.2018 2019.03_04 Jungle Green Comfort+ Manuell D ja
    75 Volpi 09.11.2018 2019.03 2019.02 Black Pearl Comfort Automatik D ja
    76 raste 09.11.2018 2019.03_04 2019.02 Jungle Green Comfort Manuell D ja
    77 Schdobbelhobbser 09.11.2018 2018.12 2018.12 Medium Grey Comfort Automatik D ja
    78 Henrik 09.11.2018 2019.04 Black Pearl Comfort+ Manuell D n.n.
    79 GeRo 10.11.2018 2019 Medium Grey Comfort+ Manuell D nein
    80 Jim-Karl 10.11.2018 2019.03 Brisk Blue Met. Comfort+ Manuell D ja
    81 Jim-New 12.11.2018 2019.02_03 2019.03 Medium Grey Comfort Automatik D ja
    82 _Thias_ 13.11.2018 2019.08_10 Medium Grey Comfort+ Manuell D nein
    83 Wachtberger 14.11.2018 2019.05_06 2019.06 Superior White Comfort Automatik D nein
    84 blob_ 14.11.2018 2019.07_09 Chiffon Ivory Comfort+ Manuell D nein
    85 Yellowjudy 15.11.2018 2019.07_09 Chiffon Ivory Comfort+ Manuell D nein
    86 HU1 16.11.2018 2019.05_06 Superior White Comfort Automatik D n.n.
    87 Scooter3.2 16.11.2018 2019.Q3_Q4 Kinetic Yellow Comfort+ Manuell D nein
    88 Blaulicht 13 17.11.2018 2019.08 Kinetic Yellow Comfort+ Manuell D n.n.
    89 munigitti 17.11.2018 2019.05_06 Black Pearl Comfort+ Manuell D ja
    90 Rurpottjimny 18.11.2018 2019.03 2019.03 Medium Grey n.n. Manuell D ja
    91 Suzuki Rainer 19.11.2018 2019.03_04 2019.05 Jungle Green Comfort Manuell D ja
    92 Larisa 19.11.2018 2019.Q3_Q4 Black Pearl Comfort+ Manuell D ja
    93 Mini-G 20.11.2018 2019.04 2019.04 Kinetic Yellow Comfort+ Manuell D ja
    94 Beobachter23 22.11.2018 2018.12 2018.12 Medium Grey Comfort Manuell D ja
    95 commissario 23.11.2018 2019.08 Kinetic Yellow Comfort+ Manuell D n.n.
    96 Trapper 23.11.2018 2019.03 Jungle Green Comfort+ Manuell D nein
    97 DocDre 23.11.2018 2019.12 Medium Grey Comfort+ Manuell D nein
    98 Subtext 24.11.2018 2019 Black Pearl Comfort+ Manuell D nein
    99 würmli4x4 24.11.2018 2019.08 Medium Grey Comfort Automatik D nein
    100 Luigi4x4 27.11.2018 2019.03 2019.03 Kinetic Yellow Comfort+ Manuell D ja
    101 dithmarscher 28.11.2018 2019.Q3_Q4 Black Pearl Comfort Automatik D nein
    102 Superandy 28.11.2018 2019.12 Brisk Blue Met. Comfort+ Manuell D nein
    103 DaniO 30.11.2018 2019.Q3_Q4 Black Pearl Comfort+ Manuell D nein
    104 Jimny1 01.12.2018 2019.04 2019.04 Chiffon Ivory Comfort+ Manuell D nein
    105 Gerd 01.12.2018 2019.03 2019.04 Medium Grey Comfort Automatik D ja
    106 lippi_jimny 04.12.2018 2019.09_10 Medium Grey Comfort+ Manuell D nein
    107 Norrahammar 05.12.2018 2019.08 Brisk Blue Met. Flash Automatik A nein
    108 Jimmy Green 06.12.2018 2019.10_12 Jungle Green Comfort Automatik D nein
    109 Marlboroman 07.12.2018 2019.07 2019.05 Black Pearl Comfort Manuell D nein
    110 master_of_shady 10.12.2018 2019.Q4 Jungle Green Comfort Manuell D nein
    111 Schetefan 10.12.2018 2019.02 2019.03 Black Pearl Comfort+ Manuell D ja
    112 Schullijimny 12.12.2018 2019 Jungle Green Comfort+ Manuell D nein
    113 Kroete 10.12.2018 2019.Q4 Black Pearl Comfort Manuell D nein
    114 oldie 13.12.2018 2019.12 Medium Grey Comfort Automatik D nein
    115 Lampenfieber 21.12.2018 2019.04 2019.05 Black Pearl Comfort Manuell D ja
    116 AC427h 28.12.2018 2020.01 Medium Grey Flash Automatik A nein
    117 Zuluu 02.01.2019 2019.09 Jungle Green Flash Automatik A n.n.
    118 Doro44 05.01.2019 2020.01 Kinetic Yellow Comfort+ Manuell D nein
    119 JFlow 11.01.2019 2019.11 Medium Grey Comfort+ Manuell D n.n.
    120 Superandy 11.01.2019 2019.02_03 2019.03 Brisk Blue Met. Comfort+ Manuell D ja
    121 Zibbelkapp 12.01.2019 2020.Q1 Superior White Comfort+ Manuell D nein
    122 Kinny 12.01.2019 2019.12 Kinetic Yellow Comfort+ Manuell D nein
    123 phelix 13.12.2018 2019.Q3_Q4 Medium Grey Comfort+ Manuell D nein
    124 roemer 15.01.2019 2019_2020 Medium Grey Comfort+ Manuell D nein
    125 9 Darter 15.01.2019 2020.01 2019.05 Brisk Blue Met. Comfort+ Manuell D nein
    126 Bully 20.01.2019 2019.12 Medium Grey Flash Manuell A n.n.
    127 Aventinus 23.01.2019 2020.Q1 Silky Silver Compact Top 4x4 Manuell CH n.n.
    128 Chimichurri 23.01.2019 2020.Q1 Jungle Green Compact Top 4x4 Manuell CH nein
    129 Kueppi 28.01.2019 2019.02_03 2019.05 Medium Grey Comfort Automatik D n.n.
    130 mura 29.01.2019 2020.Q1 Medium Grey Flash Manuell A n.n.
    131 Stoni 04.02.2019 2020.01_02 Silky Silver Comfort+ Automatik A nein
    132 NASA_Rover_Jimny 07.02.2019 2020.02_03 Black Pearl Comfort+ Manuell NL nein
    133 PlannedObsol 11.02.2019 2019.03 2019.03 Kinetic Yellow Stijl Manuell NL ja
    134 Chrilli 05.03.2019 2020.04 Kinetic Yellow Flash Manuell A nein
    135 ChrissDiss 20.03.2019 2020.01 Kinetic Yellow Pack Automatik F n.n.
    136 MadMaxl 23.03.2019 2020 Kinetic Yellow Comfort+ Manuell D nein
    137 Paramedic 02.05.2019 irgendwann Jungle Green Comfort Automatik D nein
  • Ich hab keine Ahnung wie das rechtlich aussieht...

    ...mein Vertrag war mit Lieferzeit

    KW 48/18 und das hat auf den Tag genau geklappt,obwohl zu der Zeit auch schon von langen Lieferzeiten und Bestellstop die Rede war...

    In meinem Vertrag stand unverbindlicher Liefertermin 02/2019. Der wurde in 02/2019 auf 05_06_2019 verschoben. Dann wurde mir als neuer unverbindlicher Liefertermin KW22 (letzte Woche) genannt. Der Würfel kam natürlich nicht. Aktuell habe ich keine Idee wann geliefert wird ;( Bestellt habe ich am 24.10.18, also drei Tage vor der offiziellen Vorstellung.


    Mein Händler bat mich von wöchentlichen Anfragen Abstand zu nehmen. Wenn er auf dem Hof steht, rufen wir sie sofort an, so seine Aussage :/

    Wenn da jetzt auch so ne Nummer wie bei Hausmeister_Krause folgt, kann mich Suzuki auch gern haben:!:


    Dann kaufe ich mir vor lauter Frust den neuen Ford Ranger Raptor! Da habe ich Angebote mit 25% Preisnachlass auf den Listenpreis gesehen :yay:

  • Für mich bitte folgende Angaben in die Liste eintragen:


    bestellt am 29.10.2018

    angekündigt 23.05.2019

    geliefert 07.06.2019

    Farbe Black Pearl

    Ausstattung Comfort

    Schaltung manuell

    Land D

    Vorlauf nein


    Das Auto war bei Bestellung für Juni 2019 in Aussicht gestellt. Hat wunderbar geklappt :)


    LG, Thomas

  • Hallo, endlich mal was positives! Bitte:


    36 alteir 24.10.2018 2019.05_06 Black Pearl Comfort+ Manuell D


    als Lieferdatum 2019_06 eintragen! Danke :yay:


    Ich kriege ihn zwar erst kommende Wochen, wenn alles verbaut ist, aber er ist da :!:

  • Es gibt mal wieder eine neue Liste.

    Aber es gibt auch einen bitteren Nachgeschmack.

    Wachtberger will jetzt endlich seinen Würfel haben. Ist in der Liste als geliefert makiert, also strengt euch an.

    So kostbare weil seltene Fahrzeuge wie des Waldjimnys Würfel müssen nach Erhalt in einer Halle gelagert werden

    und nicht dem Hagel ausgesetzt werden. Lieber Waldjimny du hast mein aufrichtiges Beileid.

    Die arme chrisny wartet seit dem 28.09.2018. Jetzt ist es aber höchste Eisenbahn.


    # User bestellt am angekündigt geliefert Farbe Ausstattung Schaltung Land Vorlauf
    1 piranha 16.08.2018 2018.10 2018.10 Jungle Green Comfort+ Manuell D nein
    2 Trailmaster 21.09.2018 2019.03_04 2019.03 Black Pearl Comfort+ Manuell D nein
    3 ösi_1964 21.09.2018 2019.04 2019.05 Jungle Green Pure Manuell A nein
    4 chrisny 28.09.2018 2019.05_06 Jungle Green Comfort Automatik D nein
    5 Jimnyjim 29.09.2018 2019.07_08 Black Pearl Comfort+ Manuell D nein
    6 Parilux 01.10.2018 2019.04 2019.03 Black Pearl Comfort+ Manuell D ja
    7 Küstenjimny 01.10.2018 2019.04 2019.04 Jungle Green Comfort+ Manuell D nein
    8 svantevit 01.10.2018 2019.04 2019.04 Jungle Green Comfort+ Manuell D nein
    9 gmeurb 02.10.2018 2019.03_04 2019.05 Black Pearl Comfort+ Manuell D n.n.
    10 R.Kierst 04.10.2018 2019.02 2019.01 Medium Grey Comfort+ Manuell D ja
    11 Uschis Unimog 04.10.2018 2019.05 2019.05 Jungle Green Comfort+ Manuell D nein
    12 hmoedden 04.10.2018 2019.01_02 2019.03 Black Pearl Comfort+ Manuell D ja
    13 Rainer 05.10.2018 2019.04_05 2019.04 Jungle Green Comfort+ Automatik A nein
    14 Specky 05.10.2018 2019.04_05 2019.05 Black Pearl Comfort+ Manuell D nein
    15 JP292 05.10.2018 2019.04 2019.05 Black Pearl Comfort+ Manuell D n.n.
    16 Lobinho 06.10.2018 2019.04 Medium Grey Comfort Automatik D nein
    17 Malouk 08.10.2018 2018.12 2018.12 Medium Grey Comfort+ Manuell D ja
    18 WaldJimny 08.10.2018 2019.05 2019.06 Jungle Green Comfort+ Manuell D nein
    19 Ente 09.10.2018 2019.02 2019.03 Black Pearl Comfort+ Manuell D ja
    20 1887-er 10.10.2018 2019.02 Jungle Green Comfort+ Manuell D n.n.
    21 Redcloud 10.10.2018 2019.05 2019.05 Kinetic Yellow Comfort+ Manuell D nein
    22 DerRhoener 11.10.2018 2019.05_06 black Pearl Comfort+ Manuell D nein
    23 mwm 12.10.2018 2019.05 2019.05 Jungle Green Comfort Automatik D nein
    24 Jimny Lux 13.10.2018 2019.04 2019.04 Brisk Blue Met. Comfort+ Manuell L nein
    25 mch_br 13.10.2018 2019.04_05 Kinetic Yellow Flash Manuell A n.n.
    26 Desantissybille 15.10.2018 2019.03 2019.03 Kinetic Yellow Comfort+ Manuell D n.n.
    27 Supermario 19.10.2018 2019.04_05 2019.04 Medium Grey Comfort+ Manuell A nein
    28 Supersonic 19.10.2018 2019.Q2 2019.05 Black Pearl Comfort+ Manuell D nein
    29 Vialaguna 19.10.2018 2019.04 2019.04 Medium Grey Comfort Automatik D nein
    30 helle.1.11 20.10.2018 2019.05_06 Jungle Green Comfort+ Manuell D nein
    31 wildhueter-63 22.10.2018 2019.03 Medium Grey Comfort+ Manuell D ja
    32 Katjesfresser 22.10.2018 2019.04 2019.05 Black Pearl Comfort Automatik D nein
    33 dl6hbl 23.10.2018 2019.02 2019.02 Medium Grey Comfort+ Manuell D ja
    34 OnkelJim 23.10.2018 2019.03 2019.03 Medium Grey Comfort+ Manuell D ja
    35 Geofender110 23.10.2018 2019.03 Superior White Comfort+ Manuell D ja
    36 alteir 24.10.2018 2019.05_06 2019.06 Black Pearl Comfort+ Manuell D nein
    37 Fendt104 24.10.2018 2019.06 Medium Grey Comfort+ Manuell D nein
    38 Coffee 24.10.2018 2019.05_06 2019.06 Jungle Green Comfort+ Manuell D nein
    39 Manfr3d 24.10.2018 2019.03 2019.04 Black Pearl Comfort+ Manuell D nein
    40 TG28 25.10.2018 2018.12_2019.01 2019.01 Chiffon Ivory Comfort+ Manuell D ja
    41 Healow 25.10.2018 2019.02_03 Medium Grey Comfort+ Manuell D nein
    42 nordlicht2000 25.10.2018 2019.06_07 Chiffon Ivory Comfort+ Manuell D n.n.
    43 oloischir 25.10.2018 2019.03 2019.03 Chiffon Ivory Comfort+ Manuell D ja
    44 Doc Osiris 25.10.2018 2019.07 Jungle Green Flash Manuell A n.n.
    45 Sprotte 26.10.2018 2019.03_04 2019.05 Jungle Green Comfort Manuell D nein
    46 Richy 26.10.2018 2019.05 2019.04 Jungle Green Comfort Manuell D ja
    47 MacJimny 26.10.2018 2019.11 Chiffon Ivory Comfort+ Manuell D nein
    48 Woermawo 26.10.2018 2019.01 2019.01 Jungle Green Comfort+ Manuell D nein
    49 Schorle 26.10.2018 2019.06_07 Black Pearl Comfort+ Manuell D nein
    50 henken 26.10.2018 2019.06_07 Black Pearl Comfort+ Manuell D nein
    51 MacDice 27.10.2018 2019.04_05 2019.05 Black Pearl Comfort Manuell D nein
    52 miro 27.10.2018 2019 Brisk Blue Met. Comfort+ Manuell D nein
    53 Odins Wald 27.10.2018 n.n. Jungle Green Comfort+ Manuell D nein
    54 debo71 29.10.2018 n.n. Medium Grey Comfort+ Manuell D nein
    55 ThomasW 29.10.2018 2019.05 2019.06 Black Pearl Comfort Manuell D nein
    56 tommysbeagle 30.10.2018 2019.04_05 Chiffon Ivory Comfort+ Manuell D nein
    57 biker boyz 31.10.2018 2019.07 Kinetic Yellow Flash Automatik A n.n.
    58 NOBLE_TEAM 31.10.2018 2019.04 Black Pearl Comfort+ Manuell D ja
    59 Werner1340 31.10.2018 n.n. Silky Silver Clear Manuell A nein
    60 Jimy 01.11.2018 2019.06_07 Chiffon Ivory Comfort+ Manuell D n.n.
    61 Natsuki 01.11.2018 2020.01_02 2019.05 Superior White Comfort Manuell D n.n.
    62 utah72 02.11.2018 2019.05 2019.03 Kinetic Yellow Comfort+ Manuell D ja
    63 Der ungeduldige 02.11.2019 2019.05 Kinetic Yellow Comfort+ Manuell D nein
    64 Luxostars 03.11.2018 2019.06 Jungle Green Comfort+ Manuell D n.n.
    65 Micha69er 03.11.2018 2019.08 Jungle Green Comfort Manuell D n.n.
    66 Kobold 03.11.2018 2019.Q1 2019.01 Jungle Green Comfort+ Manuell D n.n.
    67 Jimny_hannes 04.11.2018 2019.06_07 2019.06 Jungle Green Comfort Automatik D nein
    68 christine 05.11.2018 2019.02_03 2019.03 Kinetic Yellow Comfort+ Manuell D nein
  • # User bestellt am angekündigt geliefert Farbe Ausstattung Schaltung Land Vorlauf
    69 agentsky 05.11.2018 2019.08_09 Kinetic Yellow Flash Manuell A nein
    70 steff17 05.11.2018 2019.07_08 Medium Grey Comfort+ Manuell D nein
    71 Jiiirgen 06.11.2018 2019.06 Black Pearl Comfort+ Manuell D nein
    72 rust0015 06.11.2018 2019.08_09 Jungle Green Comfort+ Manuell D nein
    73 Aequilibrium 06.11.2018 2019.02_03 2019.03 Kinetic Yellow Comfort+ Manuell D nein
    74 olenz 06.11.2018 2019.04 Medium Grey Comfort+ Manuell D ja
    75 SaschaBa 08.11.2018 2019.03_04 Jungle Green Comfort+ Manuell D ja
    76 Volpi 09.11.2018 2019.03 2019.02 Black Pearl Comfort Automatik D ja
    77 raste 09.11.2018 2019.03_04 2019.02 Jungle Green Comfort Manuell D ja
    78 Schdobbelhobbser 09.11.2018 2018.12 2018.12 Medium Grey Comfort Automatik D ja
    79 Henrik 09.11.2018 2019.04 Black Pearl Comfort+ Manuell D n.n.
    80 GeRo 10.11.2018 2019 Medium Grey Comfort+ Manuell D nein
    81 Jim-Karl 10.11.2018 2019.03 Brisk Blue Met. Comfort+ Manuell D ja
    82 Jim-New 12.11.2018 2019.02_03 2019.03 Medium Grey Comfort Automatik D ja
    83 _Thias_ 13.11.2018 2019.08_10 Medium Grey Comfort+ Manuell D nein
    84 Wachtberger 14.11.2018 2019.05_06 2019.06 Superior White Comfort Automatik D nein
    85 blob_ 14.11.2018 2019.07_09 Chiffon Ivory Comfort+ Manuell D nein
    86 Yellowjudy 15.11.2018 2019.07_09 Chiffon Ivory Comfort+ Manuell D nein
    87 HU1 16.11.2018 2019.05_06 2019.06 Superior White Comfort Automatik D n.n.
    88 Scooter3.2 16.11.2018 2019.Q3_Q4 Kinetic Yellow Comfort+ Manuell D nein
    89 Blaulicht 13 17.11.2018 2019.08 Kinetic Yellow Comfort+ Manuell D n.n.
    90 munigitti 17.11.2018 2019.05_06 Black Pearl Comfort+ Manuell D ja
    91 Rurpottjimny 18.11.2018 2019.03 2019.03 Medium Grey n.n. Manuell D ja
    92 Suzuki Rainer 19.11.2018 2019.03_04 2019.05 Jungle Green Comfort Manuell D ja
    93 Larisa 19.11.2018 2019.Q3_Q4 Black Pearl Comfort+ Manuell D ja
    94 Mini-G 20.11.2018 2019.04 2019.04 Kinetic Yellow Comfort+ Manuell D ja
    95 Beobachter23 22.11.2018 2018.12 2018.12 Medium Grey Comfort Manuell D ja
    96 commissario 23.11.2018 2019.08 Kinetic Yellow Comfort+ Manuell D n.n.
    97 Trapper 23.11.2018 2019.03 Jungle Green Comfort+ Manuell D nein
    98 DocDre 23.11.2018 2019.12 Medium Grey Comfort+ Manuell D nein
    99 Subtext 24.11.2018 2019 Black Pearl Comfort+ Manuell D nein
    100 würmli4x4 24.11.2018 2019.08 Medium Grey Comfort Automatik D nein
    101 Luigi4x4 27.11.2018 2019.03 2019.03 Kinetic Yellow Comfort+ Manuell D ja
    102 dithmarscher 28.11.2018 2019.Q3_Q4 Black Pearl Comfort Automatik D nein
    103 Superandy 28.11.2018 2019.12 Brisk Blue Met. Comfort+ Manuell D nein
    104 DaniO 30.11.2018 2019.Q3_Q4 Black Pearl Comfort+ Manuell D nein
    105 Jimny1 01.12.2018 2019.04 2019.04 Chiffon Ivory Comfort+ Manuell D nein
    106 Gerd 01.12.2018 2019.03 2019.04 Medium Grey Comfort Automatik D ja
    107 lippi_jimny 04.12.2018 2019.09_10 Medium Grey Comfort+ Manuell D nein
    108 Norrahammar 05.12.2018 2019.08 Brisk Blue Met. Flash Automatik A nein
    109 Jimmy Green 06.12.2018 2019.10_12 Jungle Green Comfort Automatik D nein
    110 Marlboroman 07.12.2018 2019.07 2019.05 Black Pearl Comfort Manuell D nein
    111 master_of_shady 10.12.2018 2019.Q4 Jungle Green Comfort Manuell D nein
    112 Schetefan 10.12.2018 2019.02 2019.03 Black Pearl Comfort+ Manuell D ja
    113 Schullijimny 12.12.2018 2019 Jungle Green Comfort+ Manuell D nein
    114 Kroete 10.12.2018 2019.Q4 Black Pearl Comfort Manuell D nein
    115 oldie 13.12.2018 2019.12 Medium Grey Comfort Automatik D nein
    116 Lampenfieber 21.12.2018 2019.04 2019.05 Black Pearl Comfort Manuell D ja
    117 AC427h 28.12.2018 2020.01 Medium Grey Flash Automatik A nein
    118 Zuluu 02.01.2019 2019.09 Jungle Green Flash Automatik A n.n.
    119 Doro44 05.01.2019 2020.01 Kinetic Yellow Comfort+ Manuell D nein
    120 JFlow 11.01.2019 2019.11 Medium Grey Comfort+ Manuell D n.n.
    121 Superandy 11.01.2019 2019.02_03 2019.03 Brisk Blue Met. Comfort+ Manuell D ja
    122 Zibbelkapp 12.01.2019 2020.Q1 Superior White Comfort+ Manuell D nein
    123 Kinny 12.01.2019 2019.12 Kinetic Yellow Comfort+ Manuell D nein
    124 phelix 13.12.2018 2019.Q3_Q4 Medium Grey Comfort+ Manuell D nein
    125 roemer 15.01.2019 2019_2020 Medium Grey Comfort+ Manuell D nein
    126 9 Darter 15.01.2019 2020.01 2019.05 Brisk Blue Met. Comfort+ Manuell D nein
    127 Bully 20.01.2019 2019.12 Medium Grey Flash Manuell A n.n.
    128 Aventinus 23.01.2019 2020.Q1 Silky Silver Compact Top 4x4 Manuell CH n.n.
    129 Chimichurri 23.01.2019 2020.Q1 Jungle Green Compact Top 4x4 Manuell CH nein
    130 Kueppi 28.01.2019 2019.02_03 2019.05 Medium Grey Comfort Automatik D n.n.
    131 mura 29.01.2019 2020.Q1 Medium Grey Flash Manuell A n.n.
    132 Stoni 04.02.2019 2020.01_02 Silky Silver Comfort+ Automatik A nein
    133 NASA_Rover_Jimny 07.02.2019 2020.02_03 Black Pearl Comfort+ Manuell NL nein
    134 PlannedObsol 11.02.2019 2019.03 2019.03 Kinetic Yellow Stijl Manuell NL ja
    135 Chrilli 05.03.2019 2020.04 Kinetic Yellow Flash Manuell A nein
    136 ChrissDiss 20.03.2019 2020.01 Jungle Green Pack Automatik F nein
    137 MadMaxl 23.03.2019 2020 Kinetic Yellow Comfort+ Manuell D nein
    138 Paramedic 02.05.2019 irgendwann Jungle Green Comfort Automatik D nein
  • Hurra!

    Nachricht vom Händler, der Jimny soll Mitte bis Ende Juli auf dem Hof stehen.

    Am Samstag gehts zum konkretisieren der Umbaumaßnahmen hin und nach dem

    Urlaub ist er dann hoffentlich fertig.

    Was lange währt wird endlich gut. Wollte schon einen größeren Posten Weihnachtspapier ordern,

    um ihn schön verpackt unter den Baum zu stellen.

    Viele Grüße


    Alex

  • Luxostars ...dann drücke ich dir mal die Daumen das es bis dahin klappt ;-)

    Erst wenn der letzte Jimny GJ ausgeliefert ist, wenn die beste Bereifung ever gefunden wurde, wenn wirklich jeder DAB überall empfangen kann, wenn keiner mehr rumstöhnt er sei zu lahm, ihr an jeder Tankstelle immer noch auf den Wagen angesprochen werdet......... werdet ihr merken...das Jimny fahren echt was geiles ist!8)...und seit 07.06.2019 hab ich meinen Schaaatzzzzzz!!